| time (UTC) | temp F | wind direction | speed MPH | gust MPH | rain 1hr in | rain 24hr in | rain mn in | humidity % | barometer mb |
| 20260905040043 | 57 | 127 | 7.0 | 14.0 | 0.08 | 0.09 | 0.00 | 87 | 1016.9 |
| 20260905035550 | 57 | 108 | 7.0 | 13.0 | 0.07 | 0.08 | 0.00 | 87 | 1017.0 |
| 20260905035046 | 57 | 130 | 6.0 | 10.0 | 0.07 | 0.07 | 0.00 | 86 | 1017.2 |
| 20260905034543 | 57 | 135 | 3.0 | 10.0 | 0.06 | 0.07 | 0.00 | 86 | 1017.3 |
| 20260905034046 | 57 | 164 | 4.0 | 9.0 | 0.06 | 0.07 | 0.00 | 85 | 1017.6 |
| 20260905033543 | 57 | 162 | 7.0 | 12.0 | 0.05 | 0.06 | 0.00 | 84 | 1017.5 |
| 20260905033049 | 58 | 138 | 7.0 | 11.0 | 0.04 | 0.05 | 0.00 | 83 | 1017.4 |
| 20260905032547 | 58 | 184 | 7.0 | 12.0 | 0.03 | 0.03 | 0.00 | 81 | 1017.6 |
| 20260905032043 | 59 | 190 | 7.0 | 10.0 | 0.01 | 0.02 | 0.00 | 79 | 1017.6 |
| 20260905031546 | 59 | 169 | 5.0 | 12.0 | 0.00 | 0.01 | 0.00 | 79 | 1017.6 |
| 20260905031052 | 59 | 304 | 4.0 | 12.0 | 0.00 | 0.01 | 0.00 | 78 | 1017.4 |
| 20260905030549 | 59 | 208 | 7.0 | 15.0 | 0.00 | 0.01 | 0.00 | 77 | 1017.4 |
| 20260905030046 | 59 | 125 | 4.0 | 12.0 | 0.00 | 0.00 | 0.00 | 77 | 1017.6 |
| 20260905025553 | 60 | 114 | 5.0 | 15.0 | 0.00 | 0.00 | 0.00 | 76 | 1017.7 |
| 20260905025046 | 60 | 155 | 6.0 | 11.0 | 0.00 | 0.00 | 0.00 | 74 | 1017.8 |
| 20260905024546 | 60 | 237 | 4.0 | 14.0 | 0.00 | 0.00 | 0.00 | 73 | 1017.6 |
| 20260905024043 | 60 | 241 | 3.0 | 13.0 | 0.00 | 0.00 | 0.00 | 74 | 1017.4 |
| 20260905023543 | 60 | 209 | 3.0 | 14.0 | 0.00 | 0.00 | 0.00 | 74 | 1017.1 |
| 20260905023046 | 60 | 199 | 5.0 | 13.0 | 0.00 | 0.00 | 0.00 | 74 | 1017.2 |
| 20260905022547 | 60 | 179 | 6.0 | 13.0 | 0.00 | 0.00 | 0.00 | 74 | 1017.0 |
| 20260905022046 | 60 | 175 | 9.0 | 12.0 | 0.00 | 0.00 | 0.00 | 75 | 1016.8 |
| 20260905021543 | 60 | 237 | 8.0 | 8.0 | 0.00 | 0.00 | 0.00 | 75 | 1017.2 |
| 20260905021043 | 61 | 145 | 3.0 | 10.0 | 0.00 | 0.00 | 0.00 | 74 | 1016.9 |
| 20260905020546 | 61 | 230 | 3.0 | 8.0 | 0.00 | 0.00 | 0.00 | 74 | 1016.6 |
| 20260905020042 | 61 | 212 | 4.0 | 9.0 | 0.00 | 0.00 | 0.00 | 74 | 1016.7 |
| 20260905015547 | 61 | 172 | 2.0 | 15.0 | 0.00 | 0.00 | 0.00 | 73 | 1017.0 |
| 20260905015052 | 61 | 150 | 5.0 | 13.0 | 0.00 | 0.00 | 0.00 | 72 | 1016.4 |
| 20260905014543 | 61 | 211 | 12.0 | 12.0 | 0.00 | 0.00 | 0.00 | 71 | 1017.1 |
| 20260905014048 | 62 | 189 | 7.0 | 10.0 | 0.00 | 0.00 | 0.00 | 70 | 1017.0 |
| 20260905013545 | 62 | 141 | 4.0 | 12.0 | 0.00 | 0.00 | 0.00 | 68 | 1017.1 |
| 20260905013043 | 62 | 195 | 10.0 | 12.0 | 0.00 | 0.00 | 0.00 | 66 | 1016.4 |
| 20260905012544 | 63 | 214 | 3.0 | 10.0 | 0.00 | 0.00 | 0.00 | 65 | 1016.5 |
| 20260905012049 | 63 | 192 | 6.0 | 13.0 | 0.00 | 0.00 | 0.00 | 65 | 1016.3 |
| 20260905011543 | 63 | 199 | 9.0 | 12.0 | 0.00 | 0.00 | 0.00 | 65 | 1016.3 |
| 20260905011045 | 64 | 237 | 11.0 | 18.0 | 0.00 | 0.00 | 0.00 | 66 | 1016.2 |
| 20260905010543 | 64 | 216 | 5.0 | 11.0 | 0.00 | 0.00 | 0.00 | 67 | 1016.6 |
| 20260905010043 | 64 | 168 | 8.0 | 13.0 | 0.00 | 0.00 | 0.00 | 67 | 1016.5 |
| 20260905005547 | 64 | 224 | 9.0 | 13.0 | 0.00 | 0.00 | 0.00 | 68 | 1016.3 |
| 20260905005046 | 64 | 228 | 4.0 | 14.0 | 0.00 | 0.00 | 0.00 | 69 | 1016.4 |
| 20260905004546 | 64 | 233 | 4.0 | 15.0 | 0.00 | 0.00 | 0.00 | 70 | 1016.4 |
| 20260905004049 | 64 | 212 | 8.0 | 11.0 | 0.00 | 0.00 | 0.00 | 70 | 1016.0 |
| 20260905003546 | 64 | 237 | 3.0 | 13.0 | 0.00 | 0.00 | 0.00 | 70 | 1016.1 |
| 20260905003043 | 64 | 226 | 7.0 | 15.0 | 0.00 | 0.00 | 0.00 | 70 | 1016.1 |
| 20260905002547 | 64 | 202 | 6.0 | 13.0 | 0.00 | 0.00 | 0.00 | 69 | 1016.1 |
| 20260905002046 | 64 | 226 | 6.0 | 19.0 | 0.00 | 0.00 | 0.00 | 69 | 1016.0 |
| 20260905001543 | 64 | 212 | 4.0 | 13.0 | 0.00 | 0.00 | 0.00 | 68 | 1016.0 |
| 20260905001049 | 64 | 211 | 6.0 | 13.0 | 0.00 | 0.00 | 0.00 | 68 | 1015.9 |
| 20260905000546 | 64 | 236 | 5.0 | 10.0 | 0.00 | 0.00 | 0.00 | 67 | 1016.1 |
| 20260905000049 | 64 | 218 | 9.0 | 20.0 | 0.00 | 0.00 | 0.00 | 68 | 1015.9 |
| 20260904235547 | 64 | 187 | 6.0 | 18.0 | 0.00 | 0.00 | 0.00 | 70 | 1015.9 |
| 20260904235052 | 64 | 189 | 10.0 | 17.0 | 0.00 | 0.00 | 0.00 | 71 | 1015.9 |
| 20260904234543 | 65 | 231 | 12.0 | 18.0 | 0.00 | 0.00 | 0.00 | 71 | 1016.0 |
| 20260904234043 | 65 | 277 | 5.0 | 12.0 | 0.00 | 0.00 | 0.00 | 71 | 1016.0 |
| 20260904233546 | 65 | 336 | 7.0 | 15.0 | 0.00 | 0.00 | 0.00 | 72 | 1016.0 |
| 20260904233046 | 64 | 173 | 6.0 | 17.0 | 0.00 | 0.00 | 0.00 | 73 | 1016.1 |
| 20260904232544 | 64 | 282 | 5.0 | 12.0 | 0.00 | 0.00 | 0.00 | 74 | 1015.9 |
| 20260904232046 | 64 | 277 | 8.0 | 14.0 | 0.00 | 0.00 | 0.00 | 74 | 1016.0 |
| 20260904231543 | 64 | 209 | 6.0 | 15.0 | 0.00 | 0.00 | 0.00 | 76 | 1016.1 |
| 20260904231046 | 63 | 231 | 10.0 | 12.0 | 0.00 | 0.00 | 0.00 | 77 | 1016.0 |
| 20260904230543 | 63 | 257 | 10.0 | 13.0 | 0.00 | 0.00 | 0.00 | 77 | 1015.7 |
| 20260904230043 | 63 | 282 | 12.0 | 15.0 | 0.00 | 0.00 | 0.00 | 77 | 1015.7 |
| 20260904225547 | 63 | 277 | 5.0 | 13.0 | 0.00 | 0.00 | 0.00 | 76 | 1015.3 |
| 20260904225049 | 63 | 226 | 5.0 | 15.0 | 0.00 | 0.00 | 0.00 | 76 | 1015.3 |
| 20260904224543 | 63 | 241 | 6.0 | 13.0 | 0.00 | 0.00 | 0.00 | 75 | 1015.5 |
| 20260904224043 | 64 | 324 | 4.0 | 15.0 | 0.00 | 0.00 | 0.00 | 77 | 1015.2 |
| 20260904223552 | 64 | 266 | 8.0 | 18.0 | 0.00 | 0.00 | 0.00 | 75 | 1014.9 |
| 20260904223043 | 64 | 230 | 9.0 | 19.0 | 0.00 | 0.00 | 0.00 | 74 | 1014.8 |
| 20260904222544 | 64 | 295 | 12.0 | 16.0 | 0.00 | 0.00 | 0.00 | 74 | 1014.4 |
| 20260904222043 | 64 | 312 | 6.0 | 14.0 | 0.00 | 0.00 | 0.00 | 73 | 1014.0 |
| 20260904221549 | 64 | 314 | 9.0 | 15.0 | 0.00 | 0.00 | 0.00 | 73 | 1013.8 |
| 20260904221052 | 65 | 299 | 7.0 | 12.0 | 0.00 | 0.00 | 0.00 | 72 | 1013.7 |
| 20260904220543 | 65 | 245 | 7.0 | 15.0 | 0.00 | 0.00 | 0.00 | 72 | 1013.7 |
| 20260904220045 | 65 | 282 | 11.0 | 11.0 | 0.00 | 0.00 | 0.00 | 71 | 1013.3 |
| 20260904215553 | 65 | 253 | 9.0 | 12.0 | 0.00 | 0.00 | 0.00 | 71 | 1013.0 |
| 20260904215052 | 66 | 260 | 5.0 | 12.0 | 0.00 | 0.00 | 0.00 | 70 | 1013.0 |
| 20260904214545 | 66 | 287 | 7.0 | 9.0 | 0.00 | 0.00 | 0.00 | 70 | 1012.9 |
| 20260904214042 | 67 | 246 | 5.0 | 8.0 | 0.00 | 0.00 | 0.00 | 69 | 1012.7 |
| 20260904213542 | 67 | 260 | 4.0 | 9.0 | 0.00 | 0.00 | 0.00 | 69 | 1012.6 |
| 20260904213043 | 68 | 226 | 4.0 | 9.0 | 0.00 | 0.00 | 0.00 | 68 | 1012.6 |
| 20260904212544 | 69 | 251 | 4.0 | 8.0 | 0.00 | 0.00 | 0.00 | 67 | 1012.6 |
| 20260904212045 | 70 | 224 | 4.0 | 9.0 | 0.00 | 0.00 | 0.00 | 67 | 1012.5 |
| 20260904211545 | 71 | 304 | 4.0 | 8.0 | 0.00 | 0.00 | 0.00 | 65 | 1012.5 |
| 20260904211046 | 72 | 271 | 4.0 | 10.0 | 0.00 | 0.00 | 0.00 | 64 | 1012.3 |
| 20260904210545 | 73 | 246 | 2.0 | 8.0 | 0.00 | 0.00 | 0.00 | 63 | 1012.3 |
| 20260904210049 | 74 | 282 | 0.0 | 7.0 | 0.00 | 0.00 | 0.00 | 62 | 1012.3 |
| 20260904205544 | 75 | 309 | 3.0 | 4.0 | 0.00 | 0.00 | 0.00 | 61 | 1012.2 |
| 20260904205049 | 75 | 232 | 2.0 | 4.0 | 0.00 | 0.00 | 0.00 | 60 | 1012.2 |
| 20260904204545 | 75 | 212 | 2.0 | 6.0 | 0.00 | 0.00 | 0.00 | 60 | 1012.2 |
| 20260904204048 | 75 | 153 | 4.0 | 8.0 | 0.00 | 0.00 | 0.00 | 60 | 1012.1 |
| 20260904203543 | 75 | 178 | 6.0 | 9.0 | 0.00 | 0.00 | 0.00 | 60 | 1012.1 |
| 20260904203043 | 75 | 164 | 5.0 | 8.0 | 0.00 | 0.00 | 0.00 | 60 | 1012.1 |
| 20260904202547 | 76 | 141 | 3.0 | 6.0 | 0.00 | 0.00 | 0.00 | 60 | 1012.0 |
| 20260904202046 | 76 | 143 | 6.0 | 7.0 | 0.00 | 0.00 | 0.00 | 59 | 1012.1 |
| 20260904201546 | 76 | 129 | 6.0 | 7.0 | 0.00 | 0.00 | 0.00 | 59 | 1012.1 |
| 20260904201047 | 76 | 174 | 4.0 | 7.0 | 0.00 | 0.00 | 0.00 | 59 | 1012.1 |
| 20260904200543 | 76 | 145 | 6.0 | 7.0 | 0.00 | 0.00 | 0.00 | 59 | 1012.2 |
| 20260904200046 | 76 | 129 | 4.0 | 8.0 | 0.00 | 0.00 | 0.00 | 59 | 1012.2 |
| 20260904195544 | 76 | 156 | 6.0 | 8.0 | 0.00 | 0.00 | 0.00 | 59 | 1012.3 |
| 20260904195043 | 76 | 156 | 5.0 | 8.0 | 0.00 | 0.00 | 0.00 | 58 | 1012.4 |
| 20260904194546 | 77 | 172 | 4.0 | 8.0 | 0.00 | 0.00 | 0.00 | 58 | 1012.3 |
| 20260904194046 | 77 | 138 | 7.0 | 8.0 | 0.00 | 0.00 | 0.00 | 58 | 1012.3 |
| 20260904193543 | 77 | 172 | 5.0 | 8.0 | 0.00 | 0.00 | 0.00 | 58 | 1012.4 |
| 20260904193046 | 77 | 164 | 4.0 | 8.0 | 0.00 | 0.00 | 0.00 | 57 | 1012.3 |
| 20260904192550 | 77 | 153 | 2.0 | 6.0 | 0.00 | 0.00 | 0.00 | 57 | 1012.3 |
| 20260904192043 | 77 | 163 | 3.0 | 6.0 | 0.00 | 0.00 | 0.00 | 56 | 1012.3 |
| 20260904191543 | 78 | 139 | 4.0 | 7.0 | 0.00 | 0.00 | 0.00 | 56 | 1012.3 |
| 20260904191049 | 78 | 166 | 3.0 | 8.0 | 0.00 | 0.00 | 0.00 | 55 | 1012.3 |
| 20260904190546 | 78 | 166 | 5.0 | 8.0 | 0.00 | 0.00 | 0.00 | 55 | 1012.2 |
| 20260904190046 | 78 | 156 | 5.0 | 9.0 | 0.00 | 0.00 | 0.00 | 56 | 1012.2 |
| 20260904185544 | 78 | 172 | 5.0 | 10.0 | 0.00 | 0.00 | 0.00 | 55 | 1012.1 |
| 20260904185043 | 78 | 127 | 3.0 | 9.0 | 0.00 | 0.00 | 0.00 | 55 | 1012.1 |
| 20260904184549 | 78 | 160 | 7.0 | 9.0 | 0.00 | 0.00 | 0.00 | 55 | 1012.1 |
| 20260904184043 | 78 | 124 | 6.0 | 7.0 | 0.00 | 0.00 | 0.00 | 55 | 1012.0 |
| 20260904183543 | 78 | 116 | 3.0 | 6.0 | 0.00 | 0.00 | 0.00 | 55 | 1011.9 |
| 20260904183046 | 79 | 193 | 3.0 | 5.0 | 0.00 | 0.00 | 0.00 | 55 | 1012.0 |
| 20260904182544 | 79 | 139 | 5.0 | 7.0 | 0.00 | 0.00 | 0.00 | 54 | 1012.0 |
| 20260904182043 | 79 | 129 | 3.0 | 6.0 | 0.00 | 0.00 | 0.00 | 54 | 1011.9 |
| 20260904181546 | 79 | 162 | 4.0 | 8.0 | 0.00 | 0.00 | 0.00 | 54 | 1011.9 |
| 20260904181046 | 79 | 160 | 1.0 | 10.0 | 0.00 | 0.00 | 0.00 | 54 | 1011.9 |
| 20260904180552 | 79 | 151 | 4.0 | 7.0 | 0.00 | 0.00 | 0.00 | 53 | 1011.8 |
| 20260904180042 | 80 | 144 | 4.0 | 10.0 | 0.00 | 0.00 | 0.00 | 53 | 1011.7 |
| 20260904175544 | 80 | 117 | 5.0 | 8.0 | 0.00 | 0.00 | 0.00 | 53 | 1011.7 |
| 20260904175048 | 80 | 164 | 2.0 | 10.0 | 0.00 | 0.00 | 0.00 | 52 | 1011.8 |
| 20260904174542 | 80 | 172 | 5.0 | 10.0 | 0.00 | 0.00 | 0.00 | 52 | 1011.9 |
| 20260904174042 | 80 | 137 | 5.0 | 11.0 | 0.00 | 0.00 | 0.00 | 52 | 1012.1 |
| 20260904173552 | 81 | 192 | 5.0 | 9.0 | 0.00 | 0.00 | 0.00 | 52 | 1012.1 |
| 20260904173047 | 81 | 149 | 4.0 | 8.0 | 0.00 | 0.00 | 0.00 | 51 | 1012.1 |
| 20260904172551 | 81 | 173 | 5.0 | 12.0 | 0.00 | 0.00 | 0.00 | 51 | 1012.0 |
| 20260904172045 | 81 | 174 | 6.0 | 9.0 | 0.00 | 0.00 | 0.00 | 51 | 1012.1 |
| 20260904171542 | 81 | 218 | 3.0 | 14.0 | 0.00 | 0.00 | 0.00 | 51 | 1012.1 |
| 20260904171047 | 81 | 157 | 9.0 | 14.0 | 0.00 | 0.00 | 0.00 | 50 | 1012.1 |
| 20260904170545 | 81 | 243 | 7.0 | 12.0 | 0.00 | 0.00 | 0.00 | 50 | 1012.1 |
| 20260904170042 | 82 | 179 | 7.0 | 11.0 | 0.00 | 0.00 | 0.00 | 50 | 1012.0 |
| 20260904165546 | 82 | 189 | 4.0 | 16.0 | 0.00 | 0.00 | 0.00 | 49 | 1011.9 |
| 20260904165045 | 82 | 293 | 3.0 | 16.0 | 0.00 | 0.00 | 0.00 | 49 | 1012.0 |
| 20260904164542 | 82 | 277 | 5.0 | 15.0 | 0.00 | 0.00 | 0.00 | 49 | 1012.0 |
| 20260904164044 | 82 | 159 | 5.0 | 16.0 | 0.00 | 0.00 | 0.00 | 49 | 1011.9 |
| 20260904163548 | 82 | 164 | 7.0 | 18.0 | 0.00 | 0.00 | 0.00 | 49 | 1011.9 |
| 20260904163043 | 82 | 232 | 9.0 | 12.0 | 0.00 | 0.00 | 0.00 | 49 | 1011.8 |
| 20260904162542 | 82 | 142 | 4.0 | 17.0 | 0.00 | 0.00 | 0.00 | 49 | 1011.8 |
| 20260904162045 | 82 | 268 | 4.0 | 16.0 | 0.00 | 0.00 | 0.00 | 48 | 1011.8 |
| 20260904161545 | 82 | 313 | 5.0 | 18.0 | 0.00 | 0.00 | 0.00 | 49 | 1011.8 |
| 20260904161044 | 82 | 137 | 8.0 | 18.0 | 0.00 | 0.00 | 0.00 | 49 | 1011.7 |
| 20260904160543 | 82 | 155 | 4.0 | 20.0 | 0.00 | 0.00 | 0.00 | 49 | 1011.6 |
| 20260904160042 | 82 | 110 | 8.0 | 17.0 | 0.00 | 0.00 | 0.00 | 49 | 1011.6 |
| 20260904155549 | 82 | 138 | 8.0 | 15.0 | 0.00 | 0.00 | 0.00 | 49 | 1011.6 |
| 20260904155046 | 82 | 150 | 11.0 | 20.0 | 0.00 | 0.00 | 0.00 | 49 | 1011.7 |
| 20260904154552 | 82 | 149 | 6.0 | 21.0 | 0.00 | 0.00 | 0.00 | 49 | 1011.7 |
| 20260904154050 | 82 | 134 | 12.0 | 20.0 | 0.00 | 0.00 | 0.00 | 49 | 1011.6 |
| 20260904153549 | 82 | 127 | 15.0 | 16.0 | 0.00 | 0.00 | 0.00 | 50 | 1011.6 |
| 20260904153046 | 82 | 130 | 14.0 | 24.0 | 0.00 | 0.00 | 0.00 | 50 | 1011.7 |
| 20260904152543 | 82 | 100 | 8.0 | 22.0 | 0.00 | 0.00 | 0.00 | 50 | 1011.6 |
| 20260904152047 | 82 | 140 | 10.0 | 19.0 | 0.00 | 0.00 | 0.00 | 50 | 1011.8 |
| 20260904151543 | 82 | 150 | 7.0 | 20.0 | 0.00 | 0.00 | 0.00 | 50 | 1011.8 |
| 20260904151046 | 82 | 114 | 7.0 | 23.0 | 0.00 | 0.00 | 0.00 | 51 | 1011.9 |
| 20260904150546 | 82 | 174 | 7.0 | 18.0 | 0.00 | 0.00 | 0.00 | 51 | 1011.8 |
| 20260904150049 | 82 | 139 | 13.0 | 19.0 | 0.00 | 0.00 | 0.00 | 51 | 1011.9 |
| 20260904145543 | 81 | 120 | 13.0 | 20.0 | 0.00 | 0.00 | 0.00 | 52 | 1012.0 |
| 20260904145047 | 81 | 147 | 13.0 | 22.0 | 0.00 | 0.00 | 0.00 | 52 | 1012.1 |
| 20260904144543 | 81 | 114 | 20.0 | 22.0 | 0.00 | 0.00 | 0.00 | 51 | 1012.1 |
| 20260904144046 | 81 | 170 | 9.0 | 22.0 | 0.00 | 0.00 | 0.00 | 52 | 1012.2 |
| 20260904143543 | 81 | 183 | 7.0 | 21.0 | 0.00 | 0.00 | 0.00 | 52 | 1012.2 |
| 20260904143043 | 81 | 181 | 12.0 | 24.0 | 0.00 | 0.00 | 0.00 | 52 | 1012.2 |
| 20260904142549 | 81 | 131 | 10.0 | 17.0 | 0.00 | 0.00 | 0.00 | 52 | 1012.4 |
| 20260904142050 | 81 | 132 | 16.0 | 22.0 | 0.00 | 0.00 | 0.00 | 52 | 1012.6 |
| 20260904141546 | 81 | 180 | 7.0 | 22.0 | 0.00 | 0.00 | 0.00 | 52 | 1012.6 |
| 20260904141043 | 81 | 150 | 8.0 | 23.0 | 0.00 | 0.00 | 0.00 | 53 | 1012.7 |
| 20260904140546 | 81 | 139 | 14.0 | 21.0 | 0.00 | 0.00 | 0.00 | 52 | 1012.8 |
| 20260904140045 | 81 | 190 | 8.0 | 19.0 | 0.00 | 0.00 | 0.00 | 52 | 1012.7 |
| 20260904135542 | 81 | 160 | 6.0 | 18.0 | 0.00 | 0.00 | 0.00 | 53 | 1012.9 |
| 20260904135044 | 80 | 120 | 10.0 | 21.0 | 0.00 | 0.00 | 0.00 | 53 | 1012.9 |
| 20260904134552 | 80 | 152 | 10.0 | 23.0 | 0.00 | 0.00 | 0.00 | 53 | 1013.0 |
| 20260904134048 | 81 | 165 | 15.0 | 22.0 | 0.00 | 0.00 | 0.00 | 52 | 1013.1 |
| 20260904133545 | 80 | 145 | 8.0 | 21.0 | 0.00 | 0.00 | 0.00 | 52 | 1013.1 |
| 20260904133042 | 80 | 89 | 5.0 | 16.0 | 0.00 | 0.00 | 0.00 | 52 | 1013.2 |
| 20260904132542 | 81 | 186 | 8.0 | 24.0 | 0.00 | 0.00 | 0.00 | 52 | 1013.3 |
| 20260904132050 | 80 | 120 | 14.0 | 19.0 | 0.00 | 0.00 | 0.00 | 53 | 1013.5 |
| 20260904131545 | 80 | 141 | 11.0 | 21.0 | 0.00 | 0.00 | 0.00 | 53 | 1013.6 |
| 20260904131048 | 80 | 171 | 10.0 | 22.0 | 0.00 | 0.00 | 0.00 | 52 | 1013.7 |
| 20260904130542 | 80 | 108 | 6.0 | 21.0 | 0.00 | 0.00 | 0.00 | 53 | 1013.7 |
| 20260904130042 | 80 | 151 | 13.0 | 22.0 | 0.00 | 0.00 | 0.00 | 53 | 1013.8 |
| 20260904125545 | 79 | 225 | 5.0 | 25.0 | 0.00 | 0.00 | 0.00 | 54 | 1013.9 |
| 20260904125044 | 80 | 187 | 9.0 | 22.0 | 0.00 | 0.00 | 0.00 | 53 | 1014.0 |
| 20260904124545 | 80 | 18 | 6.0 | 19.0 | 0.00 | 0.00 | 0.00 | 53 | 1013.9 |
| 20260904124045 | 80 | 188 | 11.0 | 21.0 | 0.00 | 0.00 | 0.00 | 54 | 1014.1 |
| 20260904123542 | 79 | 176 | 7.0 | 22.0 | 0.00 | 0.00 | 0.00 | 54 | 1014.2 |
| 20260904123046 | 79 | 185 | 16.0 | 18.0 | 0.00 | 0.00 | 0.00 | 55 | 1014.2 |
| 20260904122545 | 79 | 102 | 6.0 | 21.0 | 0.00 | 0.00 | 0.00 | 55 | 1014.2 |
| 20260904122050 | 79 | 146 | 9.0 | 20.0 | 0.00 | 0.00 | 0.00 | 56 | 1014.4 |
| 20260904121542 | 79 | 118 | 7.0 | 13.0 | 0.00 | 0.00 | 0.00 | 57 | 1014.5 |
| 20260904121051 | 78 | 156 | 12.0 | 19.0 | 0.00 | 0.00 | 0.00 | 57 | 1014.4 |
| 20260904120543 | 79 | 139 | 22.0 | 24.0 | 0.00 | 0.00 | 0.00 | 56 | 1014.6 |
| 20260904120051 | 79 | 168 | 10.0 | 15.0 | 0.00 | 0.00 | 0.00 | 57 | 1014.6 |
| 20260904115542 | 78 | 183 | 6.0 | 19.0 | 0.00 | 0.00 | 0.00 | 57 | 1014.8 |
| 20260904115044 | 79 | 170 | 11.0 | 24.0 | 0.00 | 0.00 | 0.00 | 56 | 1014.8 |
| 20260904114546 | 78 | 147 | 11.0 | 18.0 | 0.00 | 0.00 | 0.00 | 58 | 1014.8 |
| 20260904114043 | 78 | 154 | 6.0 | 20.0 | 0.00 | 0.00 | 0.00 | 58 | 1015.0 |
| 20260904113548 | 78 | 57 | 4.0 | 23.0 | 0.00 | 0.00 | 0.00 | 58 | 1015.0 |
| 20260904113042 | 78 | 263 | 7.0 | 19.0 | 0.00 | 0.00 | 0.00 | 59 | 1015.0 |
| 20260904112546 | 77 | 178 | 7.0 | 21.0 | 0.00 | 0.00 | 0.00 | 59 | 1015.1 |
| 20260904112044 | 77 | 158 | 15.0 | 28.0 | 0.00 | 0.00 | 0.00 | 59 | 1015.1 |
| 20260904111543 | 76 | 85 | 7.0 | 17.0 | 0.00 | 0.00 | 0.00 | 61 | 1015.2 |
| 20260904111042 | 76 | 102 | 4.0 | 20.0 | 0.00 | 0.00 | 0.00 | 62 | 1015.3 |
| 20260904110551 | 75 | 175 | 5.0 | 21.0 | 0.00 | 0.00 | 0.00 | 63 | 1015.3 |
| 20260904110043 | 75 | 128 | 18.0 | 20.0 | 0.00 | 0.00 | 0.00 | 63 | 1015.4 |
| 20260904105552 | 75 | 110 | 10.0 | 18.0 | 0.00 | 0.00 | 0.00 | 63 | 1015.5 |
| 20260904105047 | 75 | 170 | 12.0 | 24.0 | 0.00 | 0.00 | 0.00 | 63 | 1015.6 |
| 20260904104542 | 76 | 145 | 16.0 | 24.0 | 0.00 | 0.00 | 0.00 | 62 | 1015.7 |
| 20260904104042 | 76 | 120 | 19.0 | 15.0 | 0.00 | 0.00 | 0.00 | 63 | 1015.7 |
| 20260904103552 | 75 | 179 | 9.0 | 18.0 | 0.00 | 0.00 | 0.00 | 63 | 1015.7 |
| 20260904103043 | 75 | 92 | 10.0 | 18.0 | 0.00 | 0.00 | 0.00 | 63 | 1015.7 |
| 20260904102543 | 75 | 158 | 7.0 | 17.0 | 0.00 | 0.00 | 0.00 | 63 | 1015.8 |
| 20260904102047 | 75 | 170 | 14.0 | 23.0 | 0.00 | 0.00 | 0.00 | 62 | 1015.9 |
| 20260904101543 | 75 | 233 | 7.0 | 15.0 | 0.00 | 0.00 | 0.00 | 63 | 1015.9 |
| 20260904101046 | 75 | 184 | 5.0 | 23.0 | 0.00 | 0.00 | 0.00 | 62 | 1016.0 |
| 20260904100545 | 75 | 100 | 7.0 | 19.0 | 0.00 | 0.00 | 0.00 | 62 | 1016.1 |
| 20260904100051 | 75 | 75 | 12.0 | 16.0 | 0.00 | 0.00 | 0.00 | 63 | 1016.1 |
| 20260904095548 | 74 | 130 | 3.0 | 16.0 | 0.00 | 0.00 | 0.00 | 64 | 1016.2 |
| 20260904095047 | 74 | 156 | 5.0 | 14.0 | 0.00 | 0.00 | 0.00 | 64 | 1016.2 |
| 20260904094545 | 74 | 185 | 10.0 | 20.0 | 0.00 | 0.00 | 0.00 | 64 | 1016.2 |
| 20260904094045 | 75 | 94 | 5.0 | 17.0 | 0.00 | 0.00 | 0.00 | 64 | 1016.3 |
| 20260904093545 | 74 | 100 | 2.0 | 13.0 | 0.00 | 0.00 | 0.00 | 65 | 1016.4 |
| 20260904093045 | 74 | 177 | 12.0 | 16.0 | 0.00 | 0.00 | 0.00 | 65 | 1016.5 |
| 20260904092545 | 73 | 123 | 5.0 | 16.0 | 0.00 | 0.00 | 0.00 | 66 | 1016.4 |
| 20260904092047 | 73 | 114 | 8.0 | 15.0 | 0.00 | 0.00 | 0.00 | 66 | 1016.4 |
| 20260904091542 | 73 | 138 | 5.0 | 18.0 | 0.00 | 0.00 | 0.00 | 67 | 1016.5 |
| 20260904091045 | 73 | 167 | 11.0 | 18.0 | 0.00 | 0.00 | 0.00 | 66 | 1016.5 |
| 20260904090542 | 73 | 217 | 4.0 | 13.0 | 0.00 | 0.00 | 0.00 | 67 | 1016.6 |
| 20260904090045 | 73 | 160 | 7.0 | 14.0 | 0.00 | 0.00 | 0.00 | 67 | 1016.6 |
| 20260904085545 | 72 | 141 | 7.0 | 14.0 | 0.00 | 0.00 | 0.00 | 68 | 1016.6 |
| 20260904085047 | 72 | 147 | 13.0 | 17.0 | 0.00 | 0.00 | 0.00 | 68 | 1016.8 |
| 20260904084542 | 72 | 133 | 8.0 | 18.0 | 0.00 | 0.00 | 0.00 | 67 | 1016.9 |
| 20260904084045 | 72 | 173 | 6.0 | 22.0 | 0.00 | 0.00 | 0.00 | 68 | 1017.0 |
| 20260904083542 | 72 | 151 | 13.0 | 22.0 | 0.00 | 0.00 | 0.00 | 67 | 1017.0 |
| 20260904083048 | 72 | 178 | 13.0 | 21.0 | 0.00 | 0.00 | 0.00 | 69 | 1017.1 |
| 20260904082542 | 71 | 164 | 15.0 | 16.0 | 0.00 | 0.00 | 0.00 | 69 | 1017.1 |
| 20260904082053 | 71 | 172 | 5.0 | 14.0 | 0.00 | 0.00 | 0.00 | 70 | 1017.1 |
| 20260904081542 | 70 | 170 | 10.0 | 16.0 | 0.00 | 0.00 | 0.00 | 71 | 1017.1 |
| 20260904081045 | 70 | 155 | 7.0 | 16.0 | 0.00 | 0.00 | 0.00 | 71 | 1017.2 |
| 20260904080545 | 70 | 147 | 7.0 | 13.0 | 0.00 | 0.00 | 0.00 | 72 | 1017.2 |
| 20260904080042 | 69 | 145 | 8.0 | 11.0 | 0.00 | 0.00 | 0.00 | 73 | 1017.3 |
| 20260904075543 | 69 | 185 | 9.0 | 16.0 | 0.00 | 0.00 | 0.00 | 73 | 1017.2 |
| 20260904075044 | 69 | 134 | 7.0 | 13.0 | 0.00 | 0.00 | 0.00 | 73 | 1017.3 |
| 20260904074542 | 69 | 129 | 6.0 | 16.0 | 0.00 | 0.00 | 0.00 | 73 | 1017.2 |
| 20260904074048 | 69 | 143 | 16.0 | 16.0 | 0.00 | 0.00 | 0.00 | 74 | 1017.3 |
| 20260904073548 | 68 | 178 | 8.0 | 14.0 | 0.00 | 0.00 | 0.00 | 74 | 1017.1 |
| 20260904073043 | 68 | 174 | 5.0 | 14.0 | 0.00 | 0.00 | 0.00 | 74 | 1017.1 |
| 20260904072543 | 68 | 154 | 6.0 | 16.0 | 0.00 | 0.00 | 0.00 | 74 | 1017.1 |
| 20260904072047 | 68 | 124 | 11.0 | 13.0 | 0.00 | 0.00 | 0.00 | 75 | 1017.1 |
| 20260904071542 | 67 | 155 | 5.0 | 12.0 | 0.00 | 0.00 | 0.00 | 75 | 1017.2 |
| 20260904071046 | 67 | 129 | 9.0 | 11.0 | 0.00 | 0.00 | 0.00 | 75 | 1017.3 |
| 20260904070546 | 67 | 139 | 4.0 | 7.0 | 0.00 | 0.00 | 0.00 | 75 | 1017.3 |
| 20260904070045 | 67 | 171 | 5.0 | 10.0 | 0.00 | 0.00 | 0.00 | 76 | 1017.4 |
| 20260904065542 | 66 | 160 | 7.0 | 9.0 | 0.00 | 0.00 | 0.00 | 76 | 1017.5 |
| 20260904065044 | 66 | 153 | 5.0 | 11.0 | 0.00 | 0.00 | 0.00 | 76 | 1017.6 |
| 20260904064545 | 66 | 131 | 8.0 | 10.0 | 0.00 | 0.00 | 0.00 | 76 | 1017.6 |
| 20260904064043 | 66 | 179 | 7.0 | 13.0 | 0.00 | 0.00 | 0.00 | 76 | 1017.5 |
| 20260904063542 | 66 | 145 | 7.0 | 10.0 | 0.00 | 0.00 | 0.00 | 76 | 1017.5 |
| 20260904063046 | 65 | 155 | 4.0 | 10.0 | 0.00 | 0.00 | 0.00 | 76 | 1017.5 |
| 20260904062545 | 65 | 172 | 7.0 | 11.0 | 0.00 | 0.00 | 0.00 | 77 | 1017.5 |
| 20260904062044 | 65 | 122 | 8.0 | 11.0 | 0.00 | 0.00 | 0.00 | 77 | 1017.5 |
| 20260904061546 | 65 | 163 | 8.0 | 15.0 | 0.00 | 0.00 | 0.00 | 77 | 1017.4 |
| 20260904061042 | 65 | 102 | 8.0 | 10.0 | 0.00 | 0.00 | 0.00 | 78 | 1017.5 |
| 20260904060545 | 64 | 160 | 3.0 | 11.0 | 0.00 | 0.00 | 0.00 | 79 | 1017.6 |
| 20260904060042 | 64 | 159 | 9.0 | 9.0 | 0.00 | 0.00 | 0.00 | 79 | 1017.5 |
| 20260904055542 | 64 | 137 | 6.0 | 11.0 | 0.00 | 0.00 | 0.00 | 79 | 1017.7 |
| 20260904055044 | 64 | 151 | 8.0 | 9.0 | 0.00 | 0.00 | 0.00 | 79 | 1017.7 |
| 20260904054542 | 64 | 106 | 4.0 | 8.0 | 0.00 | 0.00 | 0.00 | 79 | 1017.6 |
| 20260904054042 | 64 | 131 | 6.0 | 8.0 | 0.00 | 0.00 | 0.00 | 79 | 1017.6 |
| 20260904053545 | 64 | 131 | 5.0 | 11.0 | 0.00 | 0.00 | 0.00 | 79 | 1017.7 |
| 20260904053045 | 64 | 164 | 11.0 | 11.0 | 0.00 | 0.00 | 0.00 | 80 | 1017.8 |
| 20260904052542 | 64 | 154 | 7.0 | 12.0 | 0.00 | 0.00 | 0.00 | 80 | 1018.0 |
| 20260904052047 | 64 | 166 | 5.0 | 11.0 | 0.00 | 0.00 | 0.00 | 80 | 1018.0 |
| 20260904051542 | 64 | 136 | 7.0 | 12.0 | 0.00 | 0.00 | 0.00 | 79 | 1018.1 |
| 20260904051045 | 64 | 149 | 7.0 | 12.0 | 0.00 | 0.00 | 0.00 | 79 | 1018.0 |
| 20260904050542 | 64 | 164 | 7.0 | 15.0 | 0.00 | 0.00 | 0.00 | 79 | 1018.1 |
| 20260904050042 | 64 | 151 | 7.0 | 14.0 | 0.00 | 0.00 | 0.00 | 79 | 1018.0 |
| 20260904045551 | 63 | 172 | 10.0 | 13.0 | 0.00 | 0.00 | 0.00 | 80 | 1018.0 |
| 20260904045044 | 63 | 158 | 5.0 | 14.0 | 0.00 | 0.00 | 0.00 | 80 | 1018.0 |
| 20260904044545 | 63 | 160 | 9.0 | 12.0 | 0.00 | 0.00 | 0.00 | 80 | 1017.9 |
| 20260904044045 | 63 | 164 | 8.0 | 14.0 | 0.00 | 0.00 | 0.00 | 81 | 1018.1 |
| 20260904043548 | 63 | 162 | 10.0 | 13.0 | 0.00 | 0.00 | 0.00 | 81 | 1018.0 |
| 20260904043045 | 63 | 154 | 7.0 | 13.0 | 0.00 | 0.00 | 0.00 | 81 | 1018.0 |
| 20260904042542 | 63 | 134 | 9.0 | 14.0 | 0.00 | 0.00 | 0.00 | 81 | 1018.0 |
| 20260904042047 | 63 | 190 | 6.0 | 12.0 | 0.00 | 0.00 | 0.00 | 82 | 1018.0 |
| 20260904041542 | 63 | 179 | 8.0 | 11.0 | 0.00 | 0.00 | 0.00 | 81 | 1018.0 |
| 20260904041048 | 63 | 147 | 10.0 | 12.0 | 0.00 | 0.00 | 0.00 | 82 | 1018.0 |
| 20260904040548 | 63 | 161 | 6.0 | 13.0 | 0.00 | 0.00 | 0.00 | 82 | 1018.0 |